sensor_id;sensor_type;location;lat;lon;timestamp;pressure;altitude;pressure_sealevel;temperature
44429;BMP180;30134;47.866;-4.222;2022-09-09T00:00:47;101203.00;;;26.50
44429;BMP180;30134;47.866;-4.222;2022-09-09T00:03:27;101203.00;;;26.50
44429;BMP180;30134;47.866;-4.222;2022-09-09T00:06:04;101201.00;;;26.60
44429;BMP180;30134;47.866;-4.222;2022-09-09T00:11:12;101206.00;;;26.50
44429;BMP180;30134;47.866;-4.222;2022-09-09T00:13:50;101211.00;;;26.60
44429;BMP180;30134;47.866;-4.222;2022-09-09T00:16:22;101209.00;;;26.60
44429;BMP180;30134;47.866;-4.222;2022-09-09T00:19:06;101204.00;;;26.60
44429;BMP180;30134;47.866;-4.222;2022-09-09T00:21:37;101201.00;;;26.60
44429;BMP180;30134;47.866;-4.222;2022-09-09T00:26:48;101201.00;;;26.60
44429;BMP180;30134;47.866;-4.222;2022-09-09T00:29:47;101189.00;;;26.50
44429;BMP180;30134;47.866;-4.222;2022-09-09T00:32:19;101197.00;;;26.50
44429;BMP180;30134;47.866;-4.222;2022-09-09T00:35:38;101197.00;;;26.70
44429;BMP180;30134;47.866;-4.222;2022-09-09T00:37:46;101207.00;;;26.60
44429;BMP180;30134;47.866;-4.222;2022-09-09T00:40:34;101191.00;;;26.50
44429;BMP180;30134;47.866;-4.222;2022-09-09T01:05:30;101196.00;;;26.40
44429;BMP180;30134;47.866;-4.222;2022-09-09T01:08:01;101198.00;;;26.60
44429;BMP180;30134;47.866;-4.222;2022-09-09T01:13:25;101196.00;;;26.50
44429;BMP180;30134;47.866;-4.222;2022-09-09T01:15:52;101193.00;;;26.50
44429;BMP180;30134;47.866;-4.222;2022-09-09T01:18:21;101201.00;;;26.60
44429;BMP180;30134;47.866;-4.222;2022-09-09T01:21:13;101206.00;;;26.60
44429;BMP180;30134;47.866;-4.222;2022-09-09T01:26:30;101196.00;;;26.50
44429;BMP180;30134;47.866;-4.222;2022-09-09T01:28:58;101206.00;;;26.60
44429;BMP180;30134;47.866;-4.222;2022-09-09T01:31:38;101202.00;;;26.60
44429;BMP180;30134;47.866;-4.222;2022-09-09T01:34:14;101200.00;;;26.50
44429;BMP180;30134;47.866;-4.222;2022-09-09T01:39:18;101201.00;;;26.50
44429;BMP180;30134;47.866;-4.222;2022-09-09T01:41:44;101206.00;;;26.60
44429;BMP180;30134;47.866;-4.222;2022-09-09T01:44:10;101201.00;;;26.60
44429;BMP180;30134;47.866;-4.222;2022-09-09T01:46:36;101200.00;;;26.60
44429;BMP180;30134;47.866;-4.222;2022-09-09T01:51:50;101203.00;;;26.60
44429;BMP180;30134;47.866;-4.222;2022-09-09T01:54:35;101210.00;;;26.60
44429;BMP180;30134;47.866;-4.222;2022-09-09T02:07:48;101209.00;;;26.60
44429;BMP180;30134;47.866;-4.222;2022-09-09T02:13:12;101214.00;;;26.50
44429;BMP180;30134;47.866;-4.222;2022-09-09T02:21:28;101219.00;;;26.60
44429;BMP180;30134;47.866;-4.222;2022-09-09T02:23:58;101222.00;;;26.50
44429;BMP180;30134;47.866;-4.222;2022-09-09T02:26:24;101224.00;;;26.60
44429;BMP180;30134;47.866;-4.222;2022-09-09T02:28:51;101225.00;;;26.50
44429;BMP180;30134;47.866;-4.222;2022-09-09T02:31:20;101218.00;;;26.50
44429;BMP180;30134;47.866;-4.222;2022-09-09T02:33:55;101219.00;;;26.40
44429;BMP180;30134;47.866;-4.222;2022-09-09T02:36:23;101229.00;;;26.50
44429;BMP180;30134;47.866;-4.222;2022-09-09T02:38:52;101221.00;;;26.60
44429;BMP180;30134;47.866;-4.222;2022-09-09T02:41:42;101225.00;;;26.50
44429;BMP180;30134;47.866;-4.222;2022-09-09T02:44:17;101223.00;;;26.60
44429;BMP180;30134;47.866;-4.222;2022-09-09T02:46:57;101226.00;;;26.40
44429;BMP180;30134;47.866;-4.222;2022-09-09T02:52:24;101221.00;;;26.60
44429;BMP180;30134;47.866;-4.222;2022-09-09T02:54:54;101227.00;;;26.50
44429;BMP180;30134;47.866;-4.222;2022-09-09T02:57:27;101227.00;;;26.50
44429;BMP180;30134;47.866;-4.222;2022-09-09T02:59:53;101226.00;;;26.70
44429;BMP180;30134;47.866;-4.222;2022-09-09T03:02:22;101233.00;;;26.60
44429;BMP180;30134;47.866;-4.222;2022-09-09T03:04:48;101227.00;;;26.50
44429;BMP180;30134;47.866;-4.222;2022-09-09T03:07:20;101233.00;;;26.50
44429;BMP180;30134;47.866;-4.222;2022-09-09T03:09:46;101233.00;;;26.40
44429;BMP180;30134;47.866;-4.222;2022-09-09T03:12:12;101235.00;;;26.60
44429;BMP180;30134;47.866;-4.222;2022-09-09T03:14:38;101233.00;;;26.50
44429;BMP180;30134;47.866;-4.222;2022-09-09T03:17:05;101238.00;;;26.50
44429;BMP180;30134;47.866;-4.222;2022-09-09T03:19:31;101240.00;;;26.40
44429;BMP180;30134;47.866;-4.222;2022-09-09T03:21:57;101238.00;;;26.50
44429;BMP180;30134;47.866;-4.222;2022-09-09T03:24:24;101236.00;;;26.60
44429;BMP180;30134;47.866;-4.222;2022-09-09T03:26:50;101238.00;;;26.50
44429;BMP180;30134;47.866;-4.222;2022-09-09T03:29:16;101238.00;;;26.60
44429;BMP180;30134;47.866;-4.222;2022-09-09T03:31:43;101237.00;;;26.50
44429;BMP180;30134;47.866;-4.222;2022-09-09T03:34:09;101237.00;;;26.60
44429;BMP180;30134;47.866;-4.222;2022-09-09T03:36:36;101238.00;;;26.50
44429;BMP180;30134;47.866;-4.222;2022-09-09T03:39:02;101240.00;;;26.50
44429;BMP180;30134;47.866;-4.222;2022-09-09T03:41:29;101235.00;;;26.50
44429;BMP180;30134;47.866;-4.222;2022-09-09T03:43:57;101235.00;;;26.60
44429;BMP180;30134;47.866;-4.222;2022-09-09T03:46:24;101238.00;;;26.50
44429;BMP180;30134;47.866;-4.222;2022-09-09T03:48:50;101235.00;;;26.60
44429;BMP180;30134;47.866;-4.222;2022-09-09T03:51:17;101237.00;;;26.50
44429;BMP180;30134;47.866;-4.222;2022-09-09T03:53:45;101239.00;;;26.50
44429;BMP180;30134;47.866;-4.222;2022-09-09T03:56:12;101242.00;;;26.40
44429;BMP180;30134;47.866;-4.222;2022-09-09T03:58:37;101247.00;;;26.60
44429;BMP180;30134;47.866;-4.222;2022-09-09T04:01:08;101241.00;;;26.40
44429;BMP180;30134;47.866;-4.222;2022-09-09T04:03:34;101242.00;;;26.50
44429;BMP180;30134;47.866;-4.222;2022-09-09T04:06:04;101246.00;;;26.60
44429;BMP180;30134;47.866;-4.222;2022-09-09T04:08:33;101245.00;;;26.40
44429;BMP180;30134;47.866;-4.222;2022-09-09T04:11:01;101243.00;;;26.50
44429;BMP180;30134;47.866;-4.222;2022-09-09T04:13:30;101234.00;;;26.50
44429;BMP180;30134;47.866;-4.222;2022-09-09T04:15:58;101233.00;;;26.50
44429;BMP180;30134;47.866;-4.222;2022-09-09T04:18:25;101229.00;;;26.50
44429;BMP180;30134;47.866;-4.222;2022-09-09T04:20:52;101240.00;;;26.60
44429;BMP180;30134;47.866;-4.222;2022-09-09T04:23:19;101250.00;;;26.50
44429;BMP180;30134;47.866;-4.222;2022-09-09T04:25:47;101243.00;;;26.40
44429;BMP180;30134;47.866;-4.222;2022-09-09T04:28:14;101251.00;;;26.50
44429;BMP180;30134;47.866;-4.222;2022-09-09T04:30:41;101242.00;;;26.50
44429;BMP180;30134;47.866;-4.222;2022-09-09T04:33:10;101240.00;;;26.60
44429;BMP180;30134;47.866;-4.222;2022-09-09T04:35:36;101241.00;;;26.50
44429;BMP180;30134;47.866;-4.222;2022-09-09T04:38:02;101238.00;;;26.50
44429;BMP180;30134;47.866;-4.222;2022-09-09T04:40:29;101236.00;;;26.50
44429;BMP180;30134;47.866;-4.222;2022-09-09T04:42:58;101242.00;;;26.50
44429;BMP180;30134;47.866;-4.222;2022-09-09T04:45:25;101234.00;;;26.40
44429;BMP180;30134;47.866;-4.222;2022-09-09T04:47:52;101243.00;;;26.50
44429;BMP180;30134;47.866;-4.222;2022-09-09T04:50:18;101236.00;;;26.50
44429;BMP180;30134;47.866;-4.222;2022-09-09T04:52:44;101240.00;;;26.60
44429;BMP180;30134;47.866;-4.222;2022-09-09T04:55:10;101243.00;;;26.40
44429;BMP180;30134;47.866;-4.222;2022-09-09T04:57:39;101245.00;;;26.60
44429;BMP180;30134;47.866;-4.222;2022-09-09T05:00:05;101241.00;;;26.40
44429;BMP180;30134;47.866;-4.222;2022-09-09T05:02:31;101252.00;;;26.60
44429;BMP180;30134;47.866;-4.222;2022-09-09T05:04:58;101237.00;;;26.50
44429;BMP180;30134;47.866;-4.222;2022-09-09T05:07:24;101245.00;;;26.40
44429;BMP180;30134;47.866;-4.222;2022-09-09T05:09:52;101246.00;;;26.40
44429;BMP180;30134;47.866;-4.222;2022-09-09T05:12:18;101253.00;;;26.40
44429;BMP180;30134;47.866;-4.222;2022-09-09T05:14:43;101248.00;;;26.40
44429;BMP180;30134;47.866;-4.222;2022-09-09T05:17:09;101255.00;;;26.60
44429;BMP180;30134;47.866;-4.222;2022-09-09T05:19:36;101253.00;;;26.50
44429;BMP180;30134;47.866;-4.222;2022-09-09T05:22:02;101253.00;;;26.50
44429;BMP180;30134;47.866;-4.222;2022-09-09T05:24:28;101254.00;;;26.50
44429;BMP180;30134;47.866;-4.222;2022-09-09T05:26:54;101253.00;;;26.40
44429;BMP180;30134;47.866;-4.222;2022-09-09T05:29:23;101259.00;;;26.60
44429;BMP180;30134;47.866;-4.222;2022-09-09T05:31:49;101262.00;;;26.50
44429;BMP180;30134;47.866;-4.222;2022-09-09T05:34:17;101268.00;;;26.50
44429;BMP180;30134;47.866;-4.222;2022-09-09T05:36:43;101275.00;;;26.50
44429;BMP180;30134;47.866;-4.222;2022-09-09T05:39:09;101274.00;;;26.50
44429;BMP180;30134;47.866;-4.222;2022-09-09T05:41:34;101272.00;;;26.40
44429;BMP180;30134;47.866;-4.222;2022-09-09T05:44:01;101282.00;;;26.40
44429;BMP180;30134;47.866;-4.222;2022-09-09T05:46:27;101278.00;;;26.40
44429;BMP180;30134;47.866;-4.222;2022-09-09T05:48:53;101282.00;;;26.50
44429;BMP180;30134;47.866;-4.222;2022-09-09T05:51:24;101282.00;;;26.40
44429;BMP180;30134;47.866;-4.222;2022-09-09T05:53:52;101286.00;;;26.40
44429;BMP180;30134;47.866;-4.222;2022-09-09T05:56:20;101288.00;;;26.50
44429;BMP180;30134;47.866;-4.222;2022-09-09T05:58:48;101285.00;;;26.50
44429;BMP180;30134;47.866;-4.222;2022-09-09T06:01:18;101286.00;;;26.40
44429;BMP180;30134;47.866;-4.222;2022-09-09T06:03:45;101289.00;;;26.50
44429;BMP180;30134;47.866;-4.222;2022-09-09T06:06:17;101294.00;;;26.50
44429;BMP180;30134;47.866;-4.222;2022-09-09T06:08:44;101303.00;;;26.40
44429;BMP180;30134;47.866;-4.222;2022-09-09T06:13:37;101298.00;;;26.40
44429;BMP180;30134;47.866;-4.222;2022-09-09T06:16:14;101306.00;;;26.40
44429;BMP180;30134;47.866;-4.222;2022-09-09T06:18:41;101306.00;;;26.50
44429;BMP180;30134;47.866;-4.222;2022-09-09T06:23:42;101320.00;;;26.50
44429;BMP180;30134;47.866;-4.222;2022-09-09T06:26:15;101319.00;;;26.50
44429;BMP180;30134;47.866;-4.222;2022-09-09T06:28:42;101322.00;;;26.50
44429;BMP180;30134;47.866;-4.222;2022-09-09T06:31:11;101325.00;;;26.40
44429;BMP180;30134;47.866;-4.222;2022-09-09T06:33:38;101327.00;;;26.50
44429;BMP180;30134;47.866;-4.222;2022-09-09T06:36:14;101336.00;;;26.40
44429;BMP180;30134;47.866;-4.222;2022-09-09T06:38:41;101337.00;;;26.40
44429;BMP180;30134;47.866;-4.222;2022-09-09T06:41:08;101348.00;;;26.40
44429;BMP180;30134;47.866;-4.222;2022-09-09T06:43:35;101351.00;;;26.50
44429;BMP180;30134;47.866;-4.222;2022-09-09T06:46:04;101341.00;;;26.40
44429;BMP180;30134;47.866;-4.222;2022-09-09T06:48:30;101341.00;;;26.50
44429;BMP180;30134;47.866;-4.222;2022-09-09T06:51:04;101347.00;;;26.30
44429;BMP180;30134;47.866;-4.222;2022-09-09T06:53:30;101341.00;;;26.40
44429;BMP180;30134;47.866;-4.222;2022-09-09T06:56:16;101352.00;;;26.40
44429;BMP180;30134;47.866;-4.222;2022-09-09T06:58:42;101349.00;;;26.40
44429;BMP180;30134;47.866;-4.222;2022-09-09T07:01:13;101348.00;;;26.30
44429;BMP180;30134;47.866;-4.222;2022-09-09T07:03:40;101346.00;;;26.40
44429;BMP180;30134;47.866;-4.222;2022-09-09T07:06:06;101347.00;;;26.40
44429;BMP180;30134;47.866;-4.222;2022-09-09T07:08:33;101342.00;;;26.30
44429;BMP180;30134;47.866;-4.222;2022-09-09T07:11:06;101343.00;;;26.30
44429;BMP180;30134;47.866;-4.222;2022-09-09T07:13:33;101351.00;;;26.40
44429;BMP180;30134;47.866;-4.222;2022-09-09T07:16:13;101355.00;;;26.50
44429;BMP180;30134;47.866;-4.222;2022-09-09T07:18:40;101351.00;;;26.50
44429;BMP180;30134;47.866;-4.222;2022-09-09T07:21:11;101356.00;;;26.50
44429;BMP180;30134;47.866;-4.222;2022-09-09T07:23:38;101352.00;;;26.40
44429;BMP180;30134;47.866;-4.222;2022-09-09T07:26:09;101360.00;;;26.40
44429;BMP180;30134;47.866;-4.222;2022-09-09T07:28:35;101364.00;;;26.40
44429;BMP180;30134;47.866;-4.222;2022-09-09T07:31:02;101363.00;;;26.50
44429;BMP180;30134;47.866;-4.222;2022-09-09T07:33:29;101384.00;;;26.50
44429;BMP180;30134;47.866;-4.222;2022-09-09T07:36:04;101392.00;;;26.40
44429;BMP180;30134;47.866;-4.222;2022-09-09T07:38:31;101386.00;;;26.30
44429;BMP180;30134;47.866;-4.222;2022-09-09T07:41:07;101389.00;;;26.40
44429;BMP180;30134;47.866;-4.222;2022-09-09T07:43:34;101376.00;;;26.60
44429;BMP180;30134;47.866;-4.222;2022-09-09T07:46:00;101379.00;;;26.40
44429;BMP180;30134;47.866;-4.222;2022-09-09T07:48:29;101372.00;;;26.40
44429;BMP180;30134;47.866;-4.222;2022-09-09T07:51:07;101375.00;;;26.40
44429;BMP180;30134;47.866;-4.222;2022-09-09T07:53:33;101372.00;;;26.40
44429;BMP180;30134;47.866;-4.222;2022-09-09T07:56:08;101380.00;;;26.30
44429;BMP180;30134;47.866;-4.222;2022-09-09T07:58:39;101377.00;;;26.30
44429;BMP180;30134;47.866;-4.222;2022-09-09T08:01:15;101378.00;;;26.30
44429;BMP180;30134;47.866;-4.222;2022-09-09T08:03:44;101379.00;;;26.40
44429;BMP180;30134;47.866;-4.222;2022-09-09T08:06:10;101380.00;;;26.30
44429;BMP180;30134;47.866;-4.222;2022-09-09T08:08:38;101382.00;;;26.40
44429;BMP180;30134;47.866;-4.222;2022-09-09T08:11:07;101378.00;;;26.30
44429;BMP180;30134;47.866;-4.222;2022-09-09T08:13:34;101387.00;;;26.30
44429;BMP180;30134;47.866;-4.222;2022-09-09T08:16:05;101384.00;;;26.20
44429;BMP180;30134;47.866;-4.222;2022-09-09T08:18:31;101391.00;;;26.20
44429;BMP180;30134;47.866;-4.222;2022-09-09T08:20:57;101382.00;;;26.20
44429;BMP180;30134;47.866;-4.222;2022-09-09T08:23:23;101389.00;;;26.40
44429;BMP180;30134;47.866;-4.222;2022-09-09T08:25:49;101400.00;;;26.20
44429;BMP180;30134;47.866;-4.222;2022-09-09T08:28:15;101391.00;;;26.30
44429;BMP180;30134;47.866;-4.222;2022-09-09T08:30:41;101398.00;;;26.40
44429;BMP180;30134;47.866;-4.222;2022-09-09T08:33:08;101400.00;;;26.20
44429;BMP180;30134;47.866;-4.222;2022-09-09T08:35:34;101406.00;;;26.20
44429;BMP180;30134;47.866;-4.222;2022-09-09T08:38:00;101404.00;;;26.30
44429;BMP180;30134;47.866;-4.222;2022-09-09T08:40:29;101410.00;;;26.30
44429;BMP180;30134;47.866;-4.222;2022-09-09T08:42:58;101409.00;;;26.20
44429;BMP180;30134;47.866;-4.222;2022-09-09T08:45:31;101420.00;;;26.30
44429;BMP180;30134;47.866;-4.222;2022-09-09T08:51:37;101433.00;;;26.30
44429;BMP180;30134;47.866;-4.222;2022-09-09T08:54:04;101433.00;;;26.20
44429;BMP180;30134;47.866;-4.222;2022-09-09T08:56:31;101431.00;;;26.10
44429;BMP180;30134;47.866;-4.222;2022-09-09T08:58:59;101440.00;;;26.20
44429;BMP180;30134;47.866;-4.222;2022-09-09T09:09:57;101451.00;;;26.20
44429;BMP180;30134;47.866;-4.222;2022-09-09T09:12:27;101456.00;;;26.20
44429;BMP180;30134;47.866;-4.222;2022-09-09T09:14:54;101454.00;;;26.10
44429;BMP180;30134;47.866;-4.222;2022-09-09T09:17:23;101458.00;;;26.10
44429;BMP180;30134;47.866;-4.222;2022-09-09T09:19:50;101456.00;;;26.20
44429;BMP180;30134;47.866;-4.222;2022-09-09T09:22:39;101473.00;;;26.10
44429;BMP180;30134;47.866;-4.222;2022-09-09T09:25:16;101468.00;;;26.20
44429;BMP180;30134;47.866;-4.222;2022-09-09T09:27:56;101475.00;;;26.10
44429;BMP180;30134;47.866;-4.222;2022-09-09T09:30:26;101476.00;;;26.10
44429;BMP180;30134;47.866;-4.222;2022-09-09T09:33:42;101468.00;;;26.10
44429;BMP180;30134;47.866;-4.222;2022-09-09T09:35:50;101475.00;;;26.10
44429;BMP180;30134;47.866;-4.222;2022-09-09T09:38:24;101482.00;;;26.20
44429;BMP180;30134;47.866;-4.222;2022-09-09T09:40:58;101480.00;;;26.00
44429;BMP180;30134;47.866;-4.222;2022-09-09T09:43:34;101477.00;;;26.10
44429;BMP180;30134;47.866;-4.222;2022-09-09T09:46:03;101497.00;;;26.00
44429;BMP180;30134;47.866;-4.222;2022-09-09T09:48:29;101484.00;;;26.20
44429;BMP180;30134;47.866;-4.222;2022-09-09T09:51:04;101488.00;;;26.10
44429;BMP180;30134;47.866;-4.222;2022-09-09T09:53:34;101486.00;;;26.10
44429;BMP180;30134;47.866;-4.222;2022-09-09T09:56:04;101488.00;;;26.00
44429;BMP180;30134;47.866;-4.222;2022-09-09T09:58:33;101507.00;;;26.00
44429;BMP180;30134;47.866;-4.222;2022-09-09T10:01:00;101508.00;;;26.00
44429;BMP180;30134;47.866;-4.222;2022-09-09T10:03:29;101505.00;;;26.00
44429;BMP180;30134;47.866;-4.222;2022-09-09T10:05:56;101506.00;;;26.00
44429;BMP180;30134;47.866;-4.222;2022-09-09T10:08:25;101496.00;;;26.00
44429;BMP180;30134;47.866;-4.222;2022-09-09T10:11:25;101513.00;;;26.00
44429;BMP180;30134;47.866;-4.222;2022-09-09T10:17:03;101509.00;;;26.00
44429;BMP180;30134;47.866;-4.222;2022-09-09T10:19:35;101504.00;;;26.00
44429;BMP180;30134;47.866;-4.222;2022-09-09T10:27:22;101532.00;;;25.80
44429;BMP180;30134;47.866;-4.222;2022-09-09T10:33:01;101522.00;;;25.90
44429;BMP180;30134;47.866;-4.222;2022-09-09T10:38:30;101530.00;;;25.90
44429;BMP180;30134;47.866;-4.222;2022-09-09T10:41:31;101535.00;;;25.80
44429;BMP180;30134;47.866;-4.222;2022-09-09T10:55:16;101536.00;;;25.80
44429;BMP180;30134;47.866;-4.222;2022-09-09T10:57:45;101530.00;;;25.70
44429;BMP180;30134;47.866;-4.222;2022-09-09T11:00:37;101534.00;;;25.80
44429;BMP180;30134;47.866;-4.222;2022-09-09T11:03:04;101554.00;;;25.80
44429;BMP180;30134;47.866;-4.222;2022-09-09T11:05:52;101544.00;;;25.80
44429;BMP180;30134;47.866;-4.222;2022-09-09T11:08:25;101538.00;;;25.70
44429;BMP180;30134;47.866;-4.222;2022-09-09T11:13:46;101539.00;;;25.90
44429;BMP180;30134;47.866;-4.222;2022-09-09T11:16:39;101531.00;;;25.70
44429;BMP180;30134;47.866;-4.222;2022-09-09T11:21:43;101537.00;;;25.70
44429;BMP180;30134;47.866;-4.222;2022-09-09T11:24:28;101538.00;;;25.80
44429;BMP180;30134;47.866;-4.222;2022-09-09T11:27:01;101541.00;;;25.70
44429;BMP180;30134;47.866;-4.222;2022-09-09T11:29:42;101531.00;;;25.70
44429;BMP180;30134;47.866;-4.222;2022-09-09T11:32:39;101536.00;;;25.80
44429;BMP180;30134;47.866;-4.222;2022-09-09T11:40:27;101550.00;;;25.70
44429;BMP180;30134;47.866;-4.222;2022-09-09T11:43:12;101550.00;;;25.80
44429;BMP180;30134;47.866;-4.222;2022-09-09T11:45:41;101538.00;;;25.70
44429;BMP180;30134;47.866;-4.222;2022-09-09T11:48:29;101547.00;;;25.70
44429;BMP180;30134;47.866;-4.222;2022-09-09T11:53:26;101565.00;;;25.80
44429;BMP180;30134;47.866;-4.222;2022-09-09T11:56:10;101564.00;;;25.80
44429;BMP180;30134;47.866;-4.222;2022-09-09T11:58:42;101551.00;;;25.80
44429;BMP180;30134;47.866;-4.222;2022-09-09T12:01:29;101565.00;;;25.70
44429;BMP180;30134;47.866;-4.222;2022-09-09T12:07:04;101554.00;;;25.70
44429;BMP180;30134;47.866;-4.222;2022-09-09T12:12:28;101567.00;;;25.80
44429;BMP180;30134;47.866;-4.222;2022-09-09T12:15:16;101570.00;;;25.70
44429;BMP180;30134;47.866;-4.222;2022-09-09T12:17:45;101558.00;;;25.70
44429;BMP180;30134;47.866;-4.222;2022-09-09T12:20:19;101568.00;;;25.70
44429;BMP180;30134;47.866;-4.222;2022-09-09T12:26:17;101576.00;;;25.70
44429;BMP180;30134;47.866;-4.222;2022-09-09T12:31:14;101589.00;;;25.70
44429;BMP180;30134;47.866;-4.222;2022-09-09T12:33:44;101588.00;;;25.80
44429;BMP180;30134;47.866;-4.222;2022-09-09T12:36:27;101585.00;;;25.80
44429;BMP180;30134;47.866;-4.222;2022-09-09T12:38:54;101572.00;;;25.60
44429;BMP180;30134;47.866;-4.222;2022-09-09T12:41:26;101571.00;;;25.80
44429;BMP180;30134;47.866;-4.222;2022-09-09T12:44:06;101575.00;;;25.70
44429;BMP180;30134;47.866;-4.222;2022-09-09T12:46:41;101581.00;;;25.70
44429;BMP180;30134;47.866;-4.222;2022-09-09T12:49:34;101576.00;;;25.80
44429;BMP180;30134;47.866;-4.222;2022-09-09T12:52:04;101588.00;;;25.80
44429;BMP180;30134;47.866;-4.222;2022-09-09T12:54:34;101584.00;;;25.70
44429;BMP180;30134;47.866;-4.222;2022-09-09T12:57:00;101569.00;;;25.70
44429;BMP180;30134;47.866;-4.222;2022-09-09T12:59:38;101570.00;;;25.70
44429;BMP180;30134;47.866;-4.222;2022-09-09T13:02:31;101577.00;;;25.70
44429;BMP180;30134;47.866;-4.222;2022-09-09T13:05:08;101580.00;;;25.80
44429;BMP180;30134;47.866;-4.222;2022-09-09T13:07:39;101595.00;;;25.70
44429;BMP180;30134;47.866;-4.222;2022-09-09T13:10:05;101584.00;;;25.80
44429;BMP180;30134;47.866;-4.222;2022-09-09T13:12:31;101594.00;;;25.80
44429;BMP180;30134;47.866;-4.222;2022-09-09T13:14:57;101594.00;;;25.80
44429;BMP180;30134;47.866;-4.222;2022-09-09T13:17:24;101606.00;;;25.90
44429;BMP180;30134;47.866;-4.222;2022-09-09T13:19:51;101605.00;;;25.80
44429;BMP180;30134;47.866;-4.222;2022-09-09T13:22:36;101602.00;;;25.80
44429;BMP180;30134;47.866;-4.222;2022-09-09T13:25:13;101604.00;;;25.80
44429;BMP180;30134;47.866;-4.222;2022-09-09T13:30:35;101603.00;;;25.80
44429;BMP180;30134;47.866;-4.222;2022-09-09T13:33:29;101605.00;;;25.90
44429;BMP180;30134;47.866;-4.222;2022-09-09T13:35:57;101604.00;;;25.90
44429;BMP180;30134;47.866;-4.222;2022-09-09T13:38:27;101605.00;;;25.80
44429;BMP180;30134;47.866;-4.222;2022-09-09T13:40:59;101602.00;;;25.90
44429;BMP180;30134;47.866;-4.222;2022-09-09T13:43:36;101616.00;;;25.90
44429;BMP180;30134;47.866;-4.222;2022-09-09T13:46:06;101607.00;;;25.80
44429;BMP180;30134;47.866;-4.222;2022-09-09T13:49:28;101618.00;;;25.90
44429;BMP180;30134;47.866;-4.222;2022-09-09T13:51:48;101623.00;;;25.90
44429;BMP180;30134;47.866;-4.222;2022-09-09T13:54:18;101615.00;;;25.80
44429;BMP180;30134;47.866;-4.222;2022-09-09T13:56:45;101614.00;;;25.90
44429;BMP180;30134;47.866;-4.222;2022-09-09T13:59:13;101625.00;;;25.90
44429;BMP180;30134;47.866;-4.222;2022-09-09T14:01:39;101626.00;;;25.90
44429;BMP180;30134;47.866;-4.222;2022-09-09T14:04:05;101626.00;;;25.80
44429;BMP180;30134;47.866;-4.222;2022-09-09T14:06:32;101629.00;;;25.90
44429;BMP180;30134;47.866;-4.222;2022-09-09T14:08:58;101631.00;;;25.90
44429;BMP180;30134;47.866;-4.222;2022-09-09T14:11:24;101631.00;;;25.90
44429;BMP180;30134;47.866;-4.222;2022-09-09T14:13:50;101628.00;;;25.90
44429;BMP180;30134;47.866;-4.222;2022-09-09T14:16:17;101628.00;;;25.90
44429;BMP180;30134;47.866;-4.222;2022-09-09T14:18:46;101643.00;;;25.90
44429;BMP180;30134;47.866;-4.222;2022-09-09T14:21:13;101644.00;;;25.90
44429;BMP180;30134;47.866;-4.222;2022-09-09T14:23:41;101632.00;;;26.00
44429;BMP180;30134;47.866;-4.222;2022-09-09T14:26:08;101639.00;;;25.90
44429;BMP180;30134;47.866;-4.222;2022-09-09T14:28:35;101636.00;;;26.00
44429;BMP180;30134;47.866;-4.222;2022-09-09T14:31:03;101630.00;;;25.90
44429;BMP180;30134;47.866;-4.222;2022-09-09T14:33:29;101630.00;;;25.90
44429;BMP180;30134;47.866;-4.222;2022-09-09T14:35:59;101636.00;;;25.90
44429;BMP180;30134;47.866;-4.222;2022-09-09T14:38:32;101634.00;;;25.90
44429;BMP180;30134;47.866;-4.222;2022-09-09T14:41:01;101634.00;;;25.90
44429;BMP180;30134;47.866;-4.222;2022-09-09T14:43:29;101640.00;;;25.90
44429;BMP180;30134;47.866;-4.222;2022-09-09T14:46:05;101635.00;;;25.90
44429;BMP180;30134;47.866;-4.222;2022-09-09T14:48:32;101635.00;;;26.00
44429;BMP180;30134;47.866;-4.222;2022-09-09T14:51:05;101628.00;;;25.90
44429;BMP180;30134;47.866;-4.222;2022-09-09T14:53:32;101628.00;;;26.00
44429;BMP180;30134;47.866;-4.222;2022-09-09T14:56:09;101636.00;;;26.00
44429;BMP180;30134;47.866;-4.222;2022-09-09T14:58:36;101627.00;;;26.00
44429;BMP180;30134;47.866;-4.222;2022-09-09T15:01:11;101627.00;;;25.90
44429;BMP180;30134;47.866;-4.222;2022-09-09T15:03:41;101626.00;;;26.00
44429;BMP180;30134;47.866;-4.222;2022-09-09T15:06:11;101630.00;;;25.90
44429;BMP180;30134;47.866;-4.222;2022-09-09T15:08:37;101633.00;;;25.90
44429;BMP180;30134;47.866;-4.222;2022-09-09T15:11:05;101620.00;;;25.90
44429;BMP180;30134;47.866;-4.222;2022-09-09T15:13:34;101627.00;;;25.80
44429;BMP180;30134;47.866;-4.222;2022-09-09T15:16:08;101628.00;;;25.90
44429;BMP180;30134;47.866;-4.222;2022-09-09T15:18:35;101628.00;;;26.00
44429;BMP180;30134;47.866;-4.222;2022-09-09T15:21:04;101631.00;;;26.00
44429;BMP180;30134;47.866;-4.222;2022-09-09T15:23:32;101613.00;;;26.00
44429;BMP180;30134;47.866;-4.222;2022-09-09T15:25:58;101618.00;;;25.90
44429;BMP180;30134;47.866;-4.222;2022-09-09T15:28:24;101618.00;;;25.90
44429;BMP180;30134;47.866;-4.222;2022-09-09T15:30:52;101628.00;;;25.90
44429;BMP180;30134;47.866;-4.222;2022-09-09T15:33:19;101623.00;;;26.00
44429;BMP180;30134;47.866;-4.222;2022-09-09T15:35:47;101630.00;;;26.00
44429;BMP180;30134;47.866;-4.222;2022-09-09T15:38:13;101630.00;;;26.00
44429;BMP180;30134;47.866;-4.222;2022-09-09T15:40:40;101642.00;;;26.00
44429;BMP180;30134;47.866;-4.222;2022-09-09T15:43:06;101634.00;;;26.00
44429;BMP180;30134;47.866;-4.222;2022-09-09T15:45:33;101631.00;;;26.00
44429;BMP180;30134;47.866;-4.222;2022-09-09T15:48:00;101633.00;;;25.90
44429;BMP180;30134;47.866;-4.222;2022-09-09T15:50:26;101631.00;;;25.90
44429;BMP180;30134;47.866;-4.222;2022-09-09T15:52:52;101629.00;;;26.00
44429;BMP180;30134;47.866;-4.222;2022-09-09T15:55:19;101629.00;;;25.90
44429;BMP180;30134;47.866;-4.222;2022-09-09T15:57:51;101632.00;;;26.00
44429;BMP180;30134;47.866;-4.222;2022-09-09T16:00:19;101630.00;;;25.90
44429;BMP180;30134;47.866;-4.222;2022-09-09T16:02:48;101632.00;;;26.10
44429;BMP180;30134;47.866;-4.222;2022-09-09T16:05:14;101630.00;;;25.90
44429;BMP180;30134;47.866;-4.222;2022-09-09T16:07:40;101630.00;;;26.10
44429;BMP180;30134;47.866;-4.222;2022-09-09T16:10:08;101635.00;;;26.00
44429;BMP180;30134;47.866;-4.222;2022-09-09T16:12:34;101639.00;;;26.10
44429;BMP180;30134;47.866;-4.222;2022-09-09T16:15:00;101642.00;;;26.10